createdAt,value
2022-07-30T00:02:31.020Z,97150.50
2022-07-30T00:07:24.578Z,97151.47
2022-07-30T00:12:18.164Z,97147.94
2022-07-30T00:17:11.873Z,97152.25
2022-07-30T00:22:06.759Z,97155.84
2022-07-30T00:27:00.441Z,97148.72
2022-07-30T00:36:54.575Z,97156.06
2022-07-30T00:42:02.130Z,97154.38
2022-07-30T00:46:56.134Z,97157.50
2022-07-30T00:51:49.835Z,97166.28
2022-07-30T00:56:44.045Z,97159.38
2022-07-30T01:01:38.864Z,97160.72
2022-07-30T01:06:32.419Z,97173.94
2022-07-30T01:11:35.402Z,97176.13
2022-07-30T01:16:29.650Z,97173.56
2022-07-30T01:21:36.187Z,97173.63
2022-07-30T01:26:32.938Z,97166.22
2022-07-30T01:31:28.963Z,97171.34
2022-07-30T01:36:24.586Z,97157.09
2022-07-30T01:41:21.212Z,97157.47
2022-07-30T01:46:18.718Z,97161.06
2022-07-30T01:51:14.549Z,97158.13
2022-07-30T01:56:12.986Z,97153.94
2022-07-30T02:01:10.336Z,97157.66
2022-07-30T02:06:12.093Z,97160.81
2022-07-30T02:11:10.478Z,97154.69
2022-07-30T02:16:16.367Z,97150.38
2022-07-30T02:26:16.316Z,97163.97
2022-07-30T02:31:17.706Z,97154.41
2022-07-30T02:36:13.674Z,97162.72
2022-07-30T02:41:13.401Z,97164.38
2022-07-30T02:46:10.907Z,97167.66
2022-07-30T02:51:06.409Z,97169.00
2022-07-30T02:56:03.129Z,97169.63
2022-07-30T03:00:59.858Z,97170.09
2022-07-30T03:05:54.876Z,97165.78
2022-07-30T03:10:50.187Z,97168.63
2022-07-30T03:15:49.009Z,97174.31
2022-07-30T03:20:47.224Z,97179.09
2022-07-30T03:30:53.695Z,97186.97
2022-07-30T03:35:49.342Z,97193.53
2022-07-30T03:40:44.360Z,97190.31
2022-07-30T03:50:44.396Z,97196.47
2022-07-30T03:55:38.676Z,97199.00
2022-07-30T04:00:32.091Z,97202.34
2022-07-30T04:05:25.564Z,97201.81
2022-07-30T04:10:20.353Z,97205.13
2022-07-30T04:16:38.014Z,97215.72
2022-07-30T04:20:37.961Z,97212.03
2022-07-30T04:25:35.026Z,97230.00
2022-07-30T04:30:29.585Z,97233.47
2022-07-30T04:35:50.921Z,97237.28
2022-07-30T04:40:44.109Z,97241.97
2022-07-30T04:45:37.540Z,97241.38
2022-07-30T04:50:36.173Z,97255.09
2022-07-30T04:55:30.128Z,97257.25
2022-07-30T05:00:25.124Z,97257.28
2022-07-30T05:05:20.278Z,97255.28
2022-07-30T05:10:14.609Z,97257.59
2022-07-30T05:15:10.776Z,97261.13
2022-07-30T05:20:07.284Z,97267.97
2022-07-30T05:25:01.009Z,97261.22
2022-07-30T05:29:55.466Z,97266.38
2022-07-30T05:34:50.032Z,97265.81
2022-07-30T05:40:00.502Z,97271.78
2022-07-30T05:44:56.459Z,97272.28
2022-07-30T05:49:50.085Z,97276.78
2022-07-30T05:54:45.047Z,97278.72
2022-07-30T05:59:38.473Z,97280.59
2022-07-30T06:04:33.182Z,97284.94
2022-07-30T06:09:36.801Z,97289.38
2022-07-30T06:14:32.750Z,97299.19
2022-07-30T06:19:26.257Z,97290.16
2022-07-30T06:24:19.714Z,97296.03
2022-07-30T06:29:16.337Z,97299.72
2022-07-30T06:34:11.112Z,97304.22
2022-07-30T06:39:05.074Z,97303.91
2022-07-30T06:43:58.451Z,97302.75
2022-07-30T06:48:51.875Z,97304.91
2022-07-30T06:53:46.878Z,97306.78
2022-07-30T06:58:40.678Z,97304.75
2022-07-30T07:03:39.555Z,97305.28
2022-07-30T07:13:36.019Z,97309.44
2022-07-30T07:18:29.446Z,97304.88
2022-07-30T07:28:23.356Z,97308.69
2022-07-30T07:33:28.129Z,97303.88
2022-07-30T07:38:21.573Z,97305.59
2022-07-30T07:43:15.970Z,97311.22
2022-07-30T07:48:09.571Z,97315.88
2022-07-30T07:53:04.267Z,97310.09
2022-07-30T07:57:57.836Z,97311.25
2022-07-30T08:02:51.376Z,97317.63
2022-07-30T08:12:56.921Z,97320.13
2022-07-30T08:17:50.716Z,97309.41
2022-07-30T08:22:44.701Z,97309.41
2022-07-30T08:27:38.559Z,97313.88
2022-07-30T08:32:44.757Z,97307.19
2022-07-30T08:37:40.983Z,97308.56
2022-07-30T08:42:36.689Z,97310.06
2022-07-30T08:57:52.883Z,97302.97
2022-07-30T09:07:56.717Z,97300.41
2022-07-30T09:18:06.391Z,97297.47
2022-07-30T09:23:02.782Z,97291.50
2022-07-30T09:27:56.135Z,97294.09
2022-07-30T09:32:52.642Z,97279.38
2022-07-30T09:37:48.073Z,97280.66
2022-07-30T09:47:56.954Z,97277.63
2022-07-30T09:52:54.066Z,97276.88
2022-07-30T09:57:58.703Z,97264.34
2022-07-30T10:08:09.318Z,97253.19
2022-07-30T10:23:35.842Z,97236.38
2022-07-30T10:28:39.348Z,97253.38
2022-07-30T10:33:36.664Z,97243.28
2022-07-30T10:38:41.382Z,97245.75
2022-07-30T10:48:36.904Z,97245.97
2022-07-30T10:59:03.031Z,97245.34
2022-07-30T11:04:29.755Z,97238.94
2022-07-30T11:15:07.090Z,97221.25
2022-07-30T11:20:13.280Z,97235.19
2022-07-30T11:25:12.619Z,97242.31
2022-07-30T11:30:38.938Z,97230.84
2022-07-30T11:41:12.935Z,97208.53
2022-07-30T11:46:10.772Z,97233.09
2022-07-30T11:51:05.619Z,97227.78
2022-07-30T12:01:19.567Z,97218.47
2022-07-30T12:06:19.964Z,97232.34
2022-07-30T12:11:14.219Z,97224.47
2022-07-30T12:16:10.556Z,97222.31
2022-07-30T12:21:08.412Z,97233.09
2022-07-30T12:26:01.871Z,97236.25
2022-07-30T12:30:57.616Z,97219.50
2022-07-30T12:35:53.836Z,97214.31
2022-07-30T12:40:59.490Z,97208.81
2022-07-30T12:46:00.540Z,97214.59
2022-07-30T12:51:07.274Z,97197.19
2022-07-30T12:56:14.304Z,97199.72
2022-07-30T13:01:12.901Z,97201.22
2022-07-30T13:06:15.450Z,97195.25
2022-07-30T13:11:08.891Z,97182.84
2022-07-30T13:16:06.740Z,97174.81
2022-07-30T13:21:01.457Z,97185.38
2022-07-30T13:47:02.089Z,97190.34
2022-07-30T13:51:55.654Z,97183.72
2022-07-30T13:56:49.164Z,97169.03
2022-07-30T14:01:43.115Z,97172.34
2022-07-30T14:07:10.089Z,97157.25
2022-07-30T14:12:03.439Z,97148.44
2022-07-30T14:16:57.383Z,97140.09
2022-07-30T14:21:52.988Z,97150.94
2022-07-30T14:26:46.475Z,97152.41
2022-07-30T14:31:40.664Z,97137.13
2022-07-30T14:36:34.988Z,97150.84
2022-07-30T14:41:32.989Z,97133.44
2022-07-30T14:46:36.828Z,97126.47
2022-07-30T14:51:45.516Z,97139.13
2022-07-30T14:56:40.304Z,97138.22
2022-07-30T15:01:33.668Z,97142.97
2022-07-30T15:06:27.098Z,97138.44
2022-07-30T15:11:22.002Z,97135.97
2022-07-30T15:16:17.493Z,97137.00
2022-07-30T15:26:11.581Z,97145.50
2022-07-30T15:36:17.064Z,97154.34
2022-07-30T15:46:20.617Z,97132.88
2022-07-30T15:51:18.851Z,97140.34
2022-07-30T15:56:14.601Z,97125.41
2022-07-30T16:01:08.730Z,97125.41
2022-07-30T16:11:14.093Z,97139.06
2022-07-30T16:16:07.425Z,97131.19
2022-07-30T16:26:13.101Z,97136.97
2022-07-30T16:31:06.783Z,97138.81
2022-07-30T16:51:35.763Z,97142.09
2022-07-30T17:01:46.047Z,97122.00
2022-07-30T17:06:41.160Z,97125.25
2022-07-30T17:21:56.838Z,97120.00
2022-07-30T17:26:50.266Z,97129.97
2022-07-30T17:31:45.630Z,97132.25
2022-07-30T17:36:40.598Z,97142.38
2022-07-30T17:41:35.385Z,97145.19
2022-07-30T17:46:48.718Z,97140.88
2022-07-30T17:51:44.354Z,97142.94
2022-07-30T17:56:39.744Z,97153.69
2022-07-30T18:01:33.743Z,97156.97
2022-07-30T18:12:20.620Z,97159.72
2022-07-30T18:42:50.320Z,97185.03
2022-07-30T19:08:27.671Z,97203.84
2022-07-30T19:13:23.442Z,97216.38
2022-07-30T19:18:21.435Z,97220.44
2022-07-30T21:02:00.012Z,97290.94
2022-07-30T21:06:53.714Z,97283.81
2022-07-30T21:11:50.721Z,97289.94
2022-07-30T21:16:56.137Z,97285.41
2022-07-30T21:22:09.031Z,97293.78
2022-07-30T21:27:02.386Z,97292.81
2022-07-30T21:32:03.139Z,97296.25
2022-07-30T21:37:02.239Z,97303.28
2022-07-30T21:41:57.970Z,97300.16
2022-07-30T21:57:13.667Z,97301.69
2022-07-30T22:02:15.828Z,97301.00
2022-07-30T22:07:12.374Z,97296.69
2022-07-30T22:12:09.811Z,97302.38
2022-07-30T22:17:22.563Z,97307.41
2022-07-30T22:22:26.757Z,97310.06
2022-07-30T22:27:22.014Z,97307.34
2022-07-30T22:32:16.866Z,97304.91
2022-07-30T22:37:13.739Z,97312.03
2022-07-30T22:42:12.725Z,97305.00
2022-07-30T22:47:15.677Z,97312.16
2022-07-30T22:52:19.805Z,97306.69
2022-07-30T22:57:15.978Z,97306.25
2022-07-30T23:02:16.501Z,97309.56
2022-07-30T23:07:13.889Z,97310.72
2022-07-30T23:12:13.679Z,97308.09
2022-07-30T23:17:08.040Z,97316.41
2022-07-30T23:22:01.422Z,97310.56
2022-07-30T23:26:54.813Z,97305.41
2022-07-30T23:31:49.564Z,97312.72
2022-07-30T23:36:42.949Z,97312.59
2022-07-30T23:41:36.453Z,97312.25
2022-07-30T23:46:29.918Z,97303.25
2022-07-30T23:51:24.679Z,97307.91
2022-07-30T23:56:18.648Z,97312.25
